sensor_id;sensor_type;location;lat;lon;timestamp;P1;durP1;ratioP1;P2;durP2;ratioP2
19927;SDS011;10126;50.876;4.470;2023-07-13T00:00:00;0.10;;;0.10;;
19927;SDS011;10126;50.876;4.470;2023-07-13T00:02:00;0.17;;;0.17;;
19927;SDS011;10126;50.876;4.470;2023-07-13T00:04:01;0.20;;;0.20;;
19927;SDS011;10126;50.876;4.470;2023-07-13T00:06:02;0.20;;;0.20;;
19927;SDS011;10126;50.876;4.470;2023-07-13T00:08:03;0.20;;;0.20;;
19927;SDS011;10126;50.876;4.470;2023-07-13T00:10:08;0.10;;;0.10;;
19927;SDS011;10126;50.876;4.470;2023-07-13T00:12:21;0.20;;;0.20;;
19927;SDS011;10126;50.876;4.470;2023-07-13T00:14:27;0.20;;;0.20;;
19927;SDS011;10126;50.876;4.470;2023-07-13T00:16:28;0.10;;;0.10;;
19927;SDS011;10126;50.876;4.470;2023-07-13T00:18:29;0.10;;;0.10;;
19927;SDS011;10126;50.876;4.470;2023-07-13T00:20:30;0.20;;;0.20;;
19927;SDS011;10126;50.876;4.470;2023-07-13T00:22:30;0.20;;;0.20;;
19927;SDS011;10126;50.876;4.470;2023-07-13T00:24:31;0.20;;;0.20;;
19927;SDS011;10126;50.876;4.470;2023-07-13T00:26:32;0.10;;;0.10;;
19927;SDS011;10126;50.876;4.470;2023-07-13T00:28:33;0.20;;;0.20;;
19927;SDS011;10126;50.876;4.470;2023-07-13T00:30:34;0.10;;;0.10;;
19927;SDS011;10126;50.876;4.470;2023-07-13T00:32:34;0.20;;;0.20;;
19927;SDS011;10126;50.876;4.470;2023-07-13T00:34:35;0.10;;;0.10;;
19927;SDS011;10126;50.876;4.470;2023-07-13T00:36:37;0.10;;;0.10;;
19927;SDS011;10126;50.876;4.470;2023-07-13T00:38:38;0.10;;;0.10;;
19927;SDS011;10126;50.876;4.470;2023-07-13T00:40:39;0.20;;;0.20;;
19927;SDS011;10126;50.876;4.470;2023-07-13T00:42:40;0.20;;;0.20;;
19927;SDS011;10126;50.876;4.470;2023-07-13T00:44:41;0.10;;;0.10;;
19927;SDS011;10126;50.876;4.470;2023-07-13T00:47:00;0.20;;;0.20;;
19927;SDS011;10126;50.876;4.470;2023-07-13T00:49:02;0.10;;;0.10;;
19927;SDS011;10126;50.876;4.470;2023-07-13T00:51:05;0.20;;;0.20;;
19927;SDS011;10126;50.876;4.470;2023-07-13T00:53:06;0.20;;;0.20;;
19927;SDS011;10126;50.876;4.470;2023-07-13T00:55:08;0.20;;;0.20;;
19927;SDS011;10126;50.876;4.470;2023-07-13T00:57:14;0.10;;;0.10;;
19927;SDS011;10126;50.876;4.470;2023-07-13T00:59:17;0.10;;;0.10;;
19927;SDS011;10126;50.876;4.470;2023-07-13T01:01:19;0.20;;;0.20;;
19927;SDS011;10126;50.876;4.470;2023-07-13T01:03:20;0.10;;;0.10;;
19927;SDS011;10126;50.876;4.470;2023-07-13T01:05:21;0.20;;;0.20;;
19927;SDS011;10126;50.876;4.470;2023-07-13T01:07:22;0.20;;;0.20;;
19927;SDS011;10126;50.876;4.470;2023-07-13T01:09:25;0.10;;;0.10;;
19927;SDS011;10126;50.876;4.470;2023-07-13T01:11:26;0.20;;;0.20;;
19927;SDS011;10126;50.876;4.470;2023-07-13T01:13:27;0.10;;;0.10;;
19927;SDS011;10126;50.876;4.470;2023-07-13T01:15:35;0.10;;;0.10;;
19927;SDS011;10126;50.876;4.470;2023-07-13T01:17:36;0.10;;;0.10;;
19927;SDS011;10126;50.876;4.470;2023-07-13T01:19:38;0.10;;;0.10;;
19927;SDS011;10126;50.876;4.470;2023-07-13T01:21:41;0.20;;;0.20;;
19927;SDS011;10126;50.876;4.470;2023-07-13T01:23:42;0.20;;;0.20;;
19927;SDS011;10126;50.876;4.470;2023-07-13T01:25:44;0.10;;;0.10;;
19927;SDS011;10126;50.876;4.470;2023-07-13T01:27:45;0.20;;;0.20;;
19927;SDS011;10126;50.876;4.470;2023-07-13T01:29:46;0.20;;;0.20;;
19927;SDS011;10126;50.876;4.470;2023-07-13T01:31:47;0.10;;;0.10;;
19927;SDS011;10126;50.876;4.470;2023-07-13T01:33:48;0.10;;;0.10;;
19927;SDS011;10126;50.876;4.470;2023-07-13T01:35:48;0.10;;;0.10;;
19927;SDS011;10126;50.876;4.470;2023-07-13T01:37:52;0.20;;;0.20;;
19927;SDS011;10126;50.876;4.470;2023-07-13T01:39:53;0.10;;;0.10;;
19927;SDS011;10126;50.876;4.470;2023-07-13T01:41:54;0.10;;;0.10;;
19927;SDS011;10126;50.876;4.470;2023-07-13T01:43:54;0.10;;;0.10;;
19927;SDS011;10126;50.876;4.470;2023-07-13T01:45:55;0.10;;;0.10;;
19927;SDS011;10126;50.876;4.470;2023-07-13T01:47:55;0.10;;;0.10;;
19927;SDS011;10126;50.876;4.470;2023-07-13T01:49:56;0.10;;;0.10;;
19927;SDS011;10126;50.876;4.470;2023-07-13T01:51:57;0.10;;;0.10;;
19927;SDS011;10126;50.876;4.470;2023-07-13T01:53:58;0.20;;;0.20;;
19927;SDS011;10126;50.876;4.470;2023-07-13T01:55:59;0.20;;;0.20;;
19927;SDS011;10126;50.876;4.470;2023-07-13T01:57:59;0.20;;;0.20;;
19927;SDS011;10126;50.876;4.470;2023-07-13T02:00:03;0.20;;;0.20;;
19927;SDS011;10126;50.876;4.470;2023-07-13T02:02:06;0.10;;;0.10;;
19927;SDS011;10126;50.876;4.470;2023-07-13T02:04:07;0.20;;;0.20;;
19927;SDS011;10126;50.876;4.470;2023-07-13T02:06:08;0.10;;;0.10;;
19927;SDS011;10126;50.876;4.470;2023-07-13T02:08:08;0.17;;;0.17;;
19927;SDS011;10126;50.876;4.470;2023-07-13T02:10:09;0.20;;;0.20;;
19927;SDS011;10126;50.876;4.470;2023-07-13T02:12:11;0.10;;;0.10;;
19927;SDS011;10126;50.876;4.470;2023-07-13T02:14:11;0.20;;;0.20;;
19927;SDS011;10126;50.876;4.470;2023-07-13T02:16:12;0.20;;;0.20;;
19927;SDS011;10126;50.876;4.470;2023-07-13T02:18:13;0.20;;;0.20;;
19927;SDS011;10126;50.876;4.470;2023-07-13T02:20:17;0.10;;;0.10;;
19927;SDS011;10126;50.876;4.470;2023-07-13T02:22:17;0.10;;;0.10;;
19927;SDS011;10126;50.876;4.470;2023-07-13T02:24:18;0.20;;;0.20;;
19927;SDS011;10126;50.876;4.470;2023-07-13T02:26:20;0.10;;;0.10;;
19927;SDS011;10126;50.876;4.470;2023-07-13T02:28:21;0.13;;;0.13;;
19927;SDS011;10126;50.876;4.470;2023-07-13T02:30:22;0.10;;;0.10;;
19927;SDS011;10126;50.876;4.470;2023-07-13T02:32:24;0.17;;;0.17;;
19927;SDS011;10126;50.876;4.470;2023-07-13T02:34:25;0.10;;;0.10;;
19927;SDS011;10126;50.876;4.470;2023-07-13T02:36:26;0.10;;;0.10;;
19927;SDS011;10126;50.876;4.470;2023-07-13T02:38:26;0.10;;;0.10;;
19927;SDS011;10126;50.876;4.470;2023-07-13T02:40:27;0.10;;;0.10;;
19927;SDS011;10126;50.876;4.470;2023-07-13T02:42:28;0.20;;;0.20;;
19927;SDS011;10126;50.876;4.470;2023-07-13T02:44:28;0.20;;;0.20;;
19927;SDS011;10126;50.876;4.470;2023-07-13T02:46:30;0.10;;;0.10;;
19927;SDS011;10126;50.876;4.470;2023-07-13T02:48:31;0.10;;;0.10;;
19927;SDS011;10126;50.876;4.470;2023-07-13T02:50:32;0.10;;;0.10;;
19927;SDS011;10126;50.876;4.470;2023-07-13T02:52:32;0.20;;;0.20;;
19927;SDS011;10126;50.876;4.470;2023-07-13T02:54:33;0.10;;;0.10;;
19927;SDS011;10126;50.876;4.470;2023-07-13T02:56:34;0.20;;;0.20;;
19927;SDS011;10126;50.876;4.470;2023-07-13T02:58:35;0.20;;;0.20;;
19927;SDS011;10126;50.876;4.470;2023-07-13T03:00:38;0.10;;;0.10;;
19927;SDS011;10126;50.876;4.470;2023-07-13T03:02:41;0.20;;;0.20;;
19927;SDS011;10126;50.876;4.470;2023-07-13T03:04:41;0.17;;;0.17;;
19927;SDS011;10126;50.876;4.470;2023-07-13T03:06:42;0.20;;;0.20;;
19927;SDS011;10126;50.876;4.470;2023-07-13T03:08:43;0.20;;;0.20;;
19927;SDS011;10126;50.876;4.470;2023-07-13T03:10:44;0.20;;;0.20;;
19927;SDS011;10126;50.876;4.470;2023-07-13T03:12:45;0.20;;;0.20;;
19927;SDS011;10126;50.876;4.470;2023-07-13T03:14:46;0.10;;;0.10;;
19927;SDS011;10126;50.876;4.470;2023-07-13T03:16:46;0.20;;;0.20;;
19927;SDS011;10126;50.876;4.470;2023-07-13T03:18:47;0.20;;;0.20;;
19927;SDS011;10126;50.876;4.470;2023-07-13T03:20:51;0.10;;;0.10;;
19927;SDS011;10126;50.876;4.470;2023-07-13T03:22:52;0.10;;;0.10;;
19927;SDS011;10126;50.876;4.470;2023-07-13T03:24:55;0.10;;;0.10;;
19927;SDS011;10126;50.876;4.470;2023-07-13T03:26:56;0.20;;;0.20;;
19927;SDS011;10126;50.876;4.470;2023-07-13T03:28:56;0.10;;;0.10;;
19927;SDS011;10126;50.876;4.470;2023-07-13T03:31:04;0.10;;;0.10;;
19927;SDS011;10126;50.876;4.470;2023-07-13T03:33:09;0.20;;;0.20;;
19927;SDS011;10126;50.876;4.470;2023-07-13T03:35:10;0.17;;;0.17;;
19927;SDS011;10126;50.876;4.470;2023-07-13T03:37:11;0.20;;;0.20;;
19927;SDS011;10126;50.876;4.470;2023-07-13T03:39:11;0.20;;;0.20;;
19927;SDS011;10126;50.876;4.470;2023-07-13T03:41:12;0.13;;;0.13;;
19927;SDS011;10126;50.876;4.470;2023-07-13T03:43:12;0.20;;;0.20;;
19927;SDS011;10126;50.876;4.470;2023-07-13T03:45:13;0.20;;;0.20;;
19927;SDS011;10126;50.876;4.470;2023-07-13T03:47:14;0.10;;;0.10;;
19927;SDS011;10126;50.876;4.470;2023-07-13T03:49:14;0.20;;;0.20;;
19927;SDS011;10126;50.876;4.470;2023-07-13T03:51:16;0.20;;;0.20;;
19927;SDS011;10126;50.876;4.470;2023-07-13T03:53:17;0.20;;;0.20;;
19927;SDS011;10126;50.876;4.470;2023-07-13T03:55:19;0.20;;;0.20;;
19927;SDS011;10126;50.876;4.470;2023-07-13T03:57:19;0.10;;;0.10;;
19927;SDS011;10126;50.876;4.470;2023-07-13T03:59:20;0.10;;;0.10;;
19927;SDS011;10126;50.876;4.470;2023-07-13T04:01:21;0.20;;;0.20;;
19927;SDS011;10126;50.876;4.470;2023-07-13T04:03:23;0.10;;;0.10;;
19927;SDS011;10126;50.876;4.470;2023-07-13T04:05:24;0.10;;;0.10;;
19927;SDS011;10126;50.876;4.470;2023-07-13T04:07:25;0.20;;;0.20;;
19927;SDS011;10126;50.876;4.470;2023-07-13T04:09:26;0.10;;;0.10;;
19927;SDS011;10126;50.876;4.470;2023-07-13T04:11:28;0.10;;;0.10;;
19927;SDS011;10126;50.876;4.470;2023-07-13T04:13:32;0.10;;;0.10;;
19927;SDS011;10126;50.876;4.470;2023-07-13T04:15:33;0.20;;;0.20;;
19927;SDS011;10126;50.876;4.470;2023-07-13T04:17:33;0.20;;;0.20;;
19927;SDS011;10126;50.876;4.470;2023-07-13T04:19:34;0.17;;;0.17;;
19927;SDS011;10126;50.876;4.470;2023-07-13T04:21:35;0.20;;;0.20;;
19927;SDS011;10126;50.876;4.470;2023-07-13T04:23:36;0.10;;;0.10;;
19927;SDS011;10126;50.876;4.470;2023-07-13T04:25:37;0.20;;;0.20;;
19927;SDS011;10126;50.876;4.470;2023-07-13T04:27:38;0.20;;;0.20;;
19927;SDS011;10126;50.876;4.470;2023-07-13T04:29:39;0.10;;;0.10;;
19927;SDS011;10126;50.876;4.470;2023-07-13T04:31:40;0.10;;;0.10;;
19927;SDS011;10126;50.876;4.470;2023-07-13T04:33:40;0.10;;;0.10;;
19927;SDS011;10126;50.876;4.470;2023-07-13T04:35:42;0.10;;;0.10;;
19927;SDS011;10126;50.876;4.470;2023-07-13T04:37:44;0.20;;;0.20;;
19927;SDS011;10126;50.876;4.470;2023-07-13T04:39:44;0.17;;;0.17;;
19927;SDS011;10126;50.876;4.470;2023-07-13T04:41:45;0.20;;;0.20;;
19927;SDS011;10126;50.876;4.470;2023-07-13T04:43:45;0.10;;;0.10;;
19927;SDS011;10126;50.876;4.470;2023-07-13T04:45:46;0.20;;;0.20;;
19927;SDS011;10126;50.876;4.470;2023-07-13T04:47:47;0.13;;;0.13;;
19927;SDS011;10126;50.876;4.470;2023-07-13T04:49:47;0.20;;;0.20;;
19927;SDS011;10126;50.876;4.470;2023-07-13T04:51:48;0.13;;;0.13;;
19927;SDS011;10126;50.876;4.470;2023-07-13T04:53:49;0.20;;;0.20;;
19927;SDS011;10126;50.876;4.470;2023-07-13T04:55:49;0.20;;;0.20;;
19927;SDS011;10126;50.876;4.470;2023-07-13T04:57:50;0.20;;;0.20;;
19927;SDS011;10126;50.876;4.470;2023-07-13T04:59:51;0.20;;;0.20;;
19927;SDS011;10126;50.876;4.470;2023-07-13T05:01:52;0.10;;;0.10;;
19927;SDS011;10126;50.876;4.470;2023-07-13T05:03:53;0.10;;;0.10;;
19927;SDS011;10126;50.876;4.470;2023-07-13T05:05:56;0.20;;;0.20;;
19927;SDS011;10126;50.876;4.470;2023-07-13T05:07:57;0.10;;;0.10;;
19927;SDS011;10126;50.876;4.470;2023-07-13T05:09:59;0.17;;;0.17;;
19927;SDS011;10126;50.876;4.470;2023-07-13T05:12:00;0.10;;;0.10;;
19927;SDS011;10126;50.876;4.470;2023-07-13T05:14:00;0.20;;;0.20;;
19927;SDS011;10126;50.876;4.470;2023-07-13T05:16:04;0.10;;;0.10;;
19927;SDS011;10126;50.876;4.470;2023-07-13T05:18:08;0.10;;;0.10;;
19927;SDS011;10126;50.876;4.470;2023-07-13T05:20:09;0.17;;;0.17;;
19927;SDS011;10126;50.876;4.470;2023-07-13T05:22:10;0.20;;;0.20;;
19927;SDS011;10126;50.876;4.470;2023-07-13T05:24:10;0.10;;;0.10;;
19927;SDS011;10126;50.876;4.470;2023-07-13T05:26:11;0.10;;;0.10;;
19927;SDS011;10126;50.876;4.470;2023-07-13T05:28:12;0.20;;;0.20;;
19927;SDS011;10126;50.876;4.470;2023-07-13T05:30:13;0.10;;;0.10;;
19927;SDS011;10126;50.876;4.470;2023-07-13T05:32:13;0.20;;;0.20;;
19927;SDS011;10126;50.876;4.470;2023-07-13T05:34:14;0.10;;;0.10;;
19927;SDS011;10126;50.876;4.470;2023-07-13T05:36:15;0.10;;;0.10;;
19927;SDS011;10126;50.876;4.470;2023-07-13T05:38:16;0.10;;;0.10;;
19927;SDS011;10126;50.876;4.470;2023-07-13T05:40:16;0.10;;;0.10;;
19927;SDS011;10126;50.876;4.470;2023-07-13T05:42:17;0.10;;;0.10;;
19927;SDS011;10126;50.876;4.470;2023-07-13T05:44:18;0.20;;;0.20;;
19927;SDS011;10126;50.876;4.470;2023-07-13T05:46:19;0.10;;;0.10;;
19927;SDS011;10126;50.876;4.470;2023-07-13T05:48:20;0.17;;;0.17;;
19927;SDS011;10126;50.876;4.470;2023-07-13T05:50:20;0.10;;;0.10;;
19927;SDS011;10126;50.876;4.470;2023-07-13T05:52:21;0.20;;;0.20;;
19927;SDS011;10126;50.876;4.470;2023-07-13T05:54:22;0.20;;;0.20;;
19927;SDS011;10126;50.876;4.470;2023-07-13T05:56:23;0.20;;;0.20;;
19927;SDS011;10126;50.876;4.470;2023-07-13T05:58:25;0.20;;;0.20;;
19927;SDS011;10126;50.876;4.470;2023-07-13T06:00:26;0.10;;;0.10;;
19927;SDS011;10126;50.876;4.470;2023-07-13T06:02:27;0.20;;;0.20;;
19927;SDS011;10126;50.876;4.470;2023-07-13T06:04:28;0.10;;;0.10;;
19927;SDS011;10126;50.876;4.470;2023-07-13T06:06:28;0.20;;;0.20;;
19927;SDS011;10126;50.876;4.470;2023-07-13T06:08:29;0.10;;;0.10;;
19927;SDS011;10126;50.876;4.470;2023-07-13T06:10:32;0.20;;;0.20;;
19927;SDS011;10126;50.876;4.470;2023-07-13T06:12:33;0.10;;;0.10;;
19927;SDS011;10126;50.876;4.470;2023-07-13T06:14:34;0.20;;;0.20;;
19927;SDS011;10126;50.876;4.470;2023-07-13T06:16:34;0.10;;;0.10;;
19927;SDS011;10126;50.876;4.470;2023-07-13T06:18:35;0.10;;;0.10;;
19927;SDS011;10126;50.876;4.470;2023-07-13T06:20:37;0.10;;;0.10;;
19927;SDS011;10126;50.876;4.470;2023-07-13T06:22:38;0.10;;;0.10;;
19927;SDS011;10126;50.876;4.470;2023-07-13T06:24:38;0.10;;;0.10;;
19927;SDS011;10126;50.876;4.470;2023-07-13T06:26:39;0.10;;;0.10;;
19927;SDS011;10126;50.876;4.470;2023-07-13T06:28:39;0.10;;;0.10;;
19927;SDS011;10126;50.876;4.470;2023-07-13T06:30:40;0.10;;;0.10;;
19927;SDS011;10126;50.876;4.470;2023-07-13T06:32:41;0.10;;;0.10;;
19927;SDS011;10126;50.876;4.470;2023-07-13T06:34:41;0.10;;;0.10;;
19927;SDS011;10126;50.876;4.470;2023-07-13T06:36:42;0.13;;;0.13;;
19927;SDS011;10126;50.876;4.470;2023-07-13T06:38:43;0.20;;;0.20;;
19927;SDS011;10126;50.876;4.470;2023-07-13T06:40:44;0.10;;;0.10;;
19927;SDS011;10126;50.876;4.470;2023-07-13T06:42:45;0.10;;;0.10;;
19927;SDS011;10126;50.876;4.470;2023-07-13T06:44:45;0.10;;;0.10;;
19927;SDS011;10126;50.876;4.470;2023-07-13T06:46:46;0.10;;;0.10;;
19927;SDS011;10126;50.876;4.470;2023-07-13T06:48:46;0.13;;;0.13;;
19927;SDS011;10126;50.876;4.470;2023-07-13T06:50:48;0.10;;;0.10;;
19927;SDS011;10126;50.876;4.470;2023-07-13T06:52:50;0.10;;;0.10;;
19927;SDS011;10126;50.876;4.470;2023-07-13T06:54:50;0.10;;;0.10;;
19927;SDS011;10126;50.876;4.470;2023-07-13T06:56:51;0.10;;;0.10;;
19927;SDS011;10126;50.876;4.470;2023-07-13T06:58:52;0.10;;;0.10;;
19927;SDS011;10126;50.876;4.470;2023-07-13T07:00:52;0.10;;;0.10;;
19927;SDS011;10126;50.876;4.470;2023-07-13T07:02:54;0.10;;;0.10;;
19927;SDS011;10126;50.876;4.470;2023-07-13T07:04:55;0.10;;;0.10;;
19927;SDS011;10126;50.876;4.470;2023-07-13T07:06:56;0.10;;;0.10;;
19927;SDS011;10126;50.876;4.470;2023-07-13T07:08:57;0.10;;;0.10;;
19927;SDS011;10126;50.876;4.470;2023-07-13T07:10:57;0.00;;;0.00;;
19927;SDS011;10126;50.876;4.470;2023-07-13T07:12:58;0.10;;;0.10;;
19927;SDS011;10126;50.876;4.470;2023-07-13T07:14:59;0.10;;;0.10;;
19927;SDS011;10126;50.876;4.470;2023-07-13T07:17:00;0.10;;;0.10;;
19927;SDS011;10126;50.876;4.470;2023-07-13T07:19:01;0.10;;;0.10;;
19927;SDS011;10126;50.876;4.470;2023-07-13T07:21:01;0.10;;;0.10;;
19927;SDS011;10126;50.876;4.470;2023-07-13T07:23:02;0.00;;;0.00;;
19927;SDS011;10126;50.876;4.470;2023-07-13T07:25:03;0.10;;;0.10;;
19927;SDS011;10126;50.876;4.470;2023-07-13T07:27:04;0.10;;;0.10;;
19927;SDS011;10126;50.876;4.470;2023-07-13T07:29:05;0.10;;;0.10;;
19927;SDS011;10126;50.876;4.470;2023-07-13T07:31:05;0.10;;;0.10;;
19927;SDS011;10126;50.876;4.470;2023-07-13T07:33:06;0.00;;;0.00;;
19927;SDS011;10126;50.876;4.470;2023-07-13T07:35:07;0.10;;;0.10;;
19927;SDS011;10126;50.876;4.470;2023-07-13T07:37:11;0.10;;;0.10;;
19927;SDS011;10126;50.876;4.470;2023-07-13T07:39:13;0.00;;;0.00;;
19927;SDS011;10126;50.876;4.470;2023-07-13T07:41:13;0.10;;;0.10;;
19927;SDS011;10126;50.876;4.470;2023-07-13T07:43:14;0.00;;;0.00;;
19927;SDS011;10126;50.876;4.470;2023-07-13T07:45:15;0.00;;;0.00;;
19927;SDS011;10126;50.876;4.470;2023-07-13T07:47:15;0.00;;;0.00;;
19927;SDS011;10126;50.876;4.470;2023-07-13T07:49:16;0.10;;;0.10;;
19927;SDS011;10126;50.876;4.470;2023-07-13T07:51:17;0.00;;;0.00;;
19927;SDS011;10126;50.876;4.470;2023-07-13T07:53:17;0.08;;;0.08;;
19927;SDS011;10126;50.876;4.470;2023-07-13T07:55:21;0.03;;;0.03;;
19927;SDS011;10126;50.876;4.470;2023-07-13T07:57:22;0.00;;;0.00;;
19927;SDS011;10126;50.876;4.470;2023-07-13T07:59:23;0.00;;;0.00;;
19927;SDS011;10126;50.876;4.470;2023-07-13T08:01:24;0.00;;;0.00;;
19927;SDS011;10126;50.876;4.470;2023-07-13T08:03:24;0.08;;;0.08;;
19927;SDS011;10126;50.876;4.470;2023-07-13T08:05:25;0.10;;;0.10;;
19927;SDS011;10126;50.876;4.470;2023-07-13T08:07:26;0.00;;;0.00;;
19927;SDS011;10126;50.876;4.470;2023-07-13T08:09:27;0.00;;;0.00;;
19927;SDS011;10126;50.876;4.470;2023-07-13T08:11:27;0.00;;;0.00;;
19927;SDS011;10126;50.876;4.470;2023-07-13T08:13:28;0.00;;;0.00;;
19927;SDS011;10126;50.876;4.470;2023-07-13T08:15:28;0.00;;;0.00;;
19927;SDS011;10126;50.876;4.470;2023-07-13T08:17:29;0.00;;;0.00;;
19927;SDS011;10126;50.876;4.470;2023-07-13T08:19:31;0.00;;;0.00;;
19927;SDS011;10126;50.876;4.470;2023-07-13T08:21:32;0.10;;;0.10;;
19927;SDS011;10126;50.876;4.470;2023-07-13T08:23:33;0.00;;;0.00;;
19927;SDS011;10126;50.876;4.470;2023-07-13T08:25:36;0.00;;;0.00;;
19927;SDS011;10126;50.876;4.470;2023-07-13T08:27:37;0.00;;;0.00;;
19927;SDS011;10126;50.876;4.470;2023-07-13T08:29:38;0.00;;;0.00;;
19927;SDS011;10126;50.876;4.470;2023-07-13T08:31:39;0.00;;;0.00;;
19927;SDS011;10126;50.876;4.470;2023-07-13T08:33:40;0.00;;;0.00;;
19927;SDS011;10126;50.876;4.470;2023-07-13T08:35:41;0.00;;;0.00;;
19927;SDS011;10126;50.876;4.470;2023-07-13T08:37:41;0.10;;;0.10;;
19927;SDS011;10126;50.876;4.470;2023-07-13T08:39:42;0.00;;;0.00;;
19927;SDS011;10126;50.876;4.470;2023-07-13T08:41:50;0.10;;;0.10;;
19927;SDS011;10126;50.876;4.470;2023-07-13T08:43:56;0.00;;;0.00;;
19927;SDS011;10126;50.876;4.470;2023-07-13T08:46:13;0.00;;;0.00;;
19927;SDS011;10126;50.876;4.470;2023-07-13T08:48:22;0.00;;;0.00;;
19927;SDS011;10126;50.876;4.470;2023-07-13T08:50:33;0.00;;;0.00;;
19927;SDS011;10126;50.876;4.470;2023-07-13T08:52:40;0.10;;;0.10;;
19927;SDS011;10126;50.876;4.470;2023-07-13T08:54:48;0.00;;;0.00;;
19927;SDS011;10126;50.876;4.470;2023-07-13T08:56:51;0.00;;;0.00;;
19927;SDS011;10126;50.876;4.470;2023-07-13T08:59:05;0.10;;;0.10;;
19927;SDS011;10126;50.876;4.470;2023-07-13T09:01:16;0.00;;;0.00;;
19927;SDS011;10126;50.876;4.470;2023-07-13T09:03:25;0.00;;;0.00;;
19927;SDS011;10126;50.876;4.470;2023-07-13T09:05:33;0.00;;;0.00;;
19927;SDS011;10126;50.876;4.470;2023-07-13T09:10:01;0.00;;;0.00;;
19927;SDS011;10126;50.876;4.470;2023-07-13T09:14:28;0.00;;;0.00;;
19927;SDS011;10126;50.876;4.470;2023-07-13T09:16:44;0.00;;;0.00;;
19927;SDS011;10126;50.876;4.470;2023-07-13T09:18:47;0.00;;;0.00;;
19927;SDS011;10126;50.876;4.470;2023-07-13T09:20:56;0.00;;;0.00;;
19927;SDS011;10126;50.876;4.470;2023-07-13T09:23:00;0.00;;;0.00;;
19927;SDS011;10126;50.876;4.470;2023-07-13T09:25:06;0.00;;;0.00;;
19927;SDS011;10126;50.876;4.470;2023-07-13T09:27:33;0.00;;;0.00;;
19927;SDS011;10126;50.876;4.470;2023-07-13T09:29:40;0.00;;;0.00;;
19927;SDS011;10126;50.876;4.470;2023-07-13T09:31:47;0.00;;;0.00;;
19927;SDS011;10126;50.876;4.470;2023-07-13T09:33:53;0.00;;;0.00;;
19927;SDS011;10126;50.876;4.470;2023-07-13T09:35:54;0.00;;;0.00;;
19927;SDS011;10126;50.876;4.470;2023-07-13T09:40:25;0.00;;;0.00;;
19927;SDS011;10126;50.876;4.470;2023-07-13T09:42:36;0.00;;;0.00;;
19927;SDS011;10126;50.876;4.470;2023-07-13T09:44:39;0.00;;;0.00;;
19927;SDS011;10126;50.876;4.470;2023-07-13T09:46:51;0.00;;;0.00;;
19927;SDS011;10126;50.876;4.470;2023-07-13T09:48:54;0.00;;;0.00;;
19927;SDS011;10126;50.876;4.470;2023-07-13T09:50:56;0.00;;;0.00;;
19927;SDS011;10126;50.876;4.470;2023-07-13T09:53:09;0.00;;;0.00;;
19927;SDS011;10126;50.876;4.470;2023-07-13T09:55:25;0.00;;;0.00;;
19927;SDS011;10126;50.876;4.470;2023-07-13T09:57:27;0.00;;;0.00;;
19927;SDS011;10126;50.876;4.470;2023-07-13T09:59:32;0.00;;;0.00;;
19927;SDS011;10126;50.876;4.470;2023-07-13T10:01:38;0.00;;;0.00;;
19927;SDS011;10126;50.876;4.470;2023-07-13T10:03:38;0.00;;;0.00;;
19927;SDS011;10126;50.876;4.470;2023-07-13T10:05:42;0.00;;;0.00;;
19927;SDS011;10126;50.876;4.470;2023-07-13T10:07:44;0.08;;;0.08;;
19927;SDS011;10126;50.876;4.470;2023-07-13T10:09:45;0.00;;;0.00;;
19927;SDS011;10126;50.876;4.470;2023-07-13T10:11:46;0.00;;;0.00;;
19927;SDS011;10126;50.876;4.470;2023-07-13T10:13:52;0.00;;;0.00;;
19927;SDS011;10126;50.876;4.470;2023-07-13T10:15:55;0.00;;;0.00;;
19927;SDS011;10126;50.876;4.470;2023-07-13T10:17:58;0.20;;;0.10;;
19927;SDS011;10126;50.876;4.470;2023-07-13T10:20:03;0.10;;;0.10;;
19927;SDS011;10126;50.876;4.470;2023-07-13T10:23:09;0.00;;;0.00;;
19927;SDS011;10126;50.876;4.470;2023-07-13T10:24:53;0.00;;;0.00;;
19927;SDS011;10126;50.876;4.470;2023-07-13T10:29:26;0.00;;;0.00;;
19927;SDS011;10126;50.876;4.470;2023-07-13T10:31:29;0.00;;;0.00;;
19927;SDS011;10126;50.876;4.470;2023-07-13T10:33:31;0.00;;;0.00;;
19927;SDS011;10126;50.876;4.470;2023-07-13T10:35:32;0.00;;;0.00;;
19927;SDS011;10126;50.876;4.470;2023-07-13T10:37:45;0.00;;;0.00;;
19927;SDS011;10126;50.876;4.470;2023-07-13T10:39:54;0.00;;;0.00;;
19927;SDS011;10126;50.876;4.470;2023-07-13T10:42:00;0.00;;;0.00;;
19927;SDS011;10126;50.876;4.470;2023-07-13T10:44:05;0.00;;;0.00;;
19927;SDS011;10126;50.876;4.470;2023-07-13T10:46:30;0.00;;;0.00;;
19927;SDS011;10126;50.876;4.470;2023-07-13T10:48:31;0.00;;;0.00;;
19927;SDS011;10126;50.876;4.470;2023-07-13T10:50:37;0.00;;;0.00;;
19927;SDS011;10126;50.876;4.470;2023-07-13T10:52:45;0.10;;;0.10;;
19927;SDS011;10126;50.876;4.470;2023-07-13T10:54:51;0.00;;;0.00;;
19927;SDS011;10126;50.876;4.470;2023-07-13T10:57:06;0.00;;;0.00;;
19927;SDS011;10126;50.876;4.470;2023-07-13T11:01:10;0.00;;;0.00;;
19927;SDS011;10126;50.876;4.470;2023-07-13T11:03:13;0.00;;;0.00;;
19927;SDS011;10126;50.876;4.470;2023-07-13T11:05:22;0.10;;;0.10;;
19927;SDS011;10126;50.876;4.470;2023-07-13T11:07:29;0.10;;;0.10;;
19927;SDS011;10126;50.876;4.470;2023-07-13T11:09:51;0.00;;;0.00;;
19927;SDS011;10126;50.876;4.470;2023-07-13T11:12:01;0.00;;;0.00;;
19927;SDS011;10126;50.876;4.470;2023-07-13T11:14:25;0.10;;;0.10;;
19927;SDS011;10126;50.876;4.470;2023-07-13T11:16:35;0.10;;;0.10;;
19927;SDS011;10126;50.876;4.470;2023-07-13T11:18:47;0.10;;;0.10;;
19927;SDS011;10126;50.876;4.470;2023-07-13T11:21:12;0.10;;;0.10;;
19927;SDS011;10126;50.876;4.470;2023-07-13T11:27:34;0.08;;;0.08;;
19927;SDS011;10126;50.876;4.470;2023-07-13T11:29:42;0.00;;;0.00;;
19927;SDS011;10126;50.876;4.470;2023-07-13T11:31:56;0.00;;;0.00;;
19927;SDS011;10126;50.876;4.470;2023-07-13T11:33:59;0.10;;;0.10;;
19927;SDS011;10126;50.876;4.470;2023-07-13T11:36:05;0.00;;;0.00;;
19927;SDS011;10126;50.876;4.470;2023-07-13T11:38:17;0.00;;;0.00;;
19927;SDS011;10126;50.876;4.470;2023-07-13T11:40:21;0.00;;;0.00;;
19927;SDS011;10126;50.876;4.470;2023-07-13T11:42:27;0.00;;;0.00;;
19927;SDS011;10126;50.876;4.470;2023-07-13T11:44:29;0.00;;;0.00;;
19927;SDS011;10126;50.876;4.470;2023-07-13T11:46:31;0.00;;;0.00;;
19927;SDS011;10126;50.876;4.470;2023-07-13T11:48:33;0.05;;;0.05;;
19927;SDS011;10126;50.876;4.470;2023-07-13T11:50:34;0.10;;;0.10;;
19927;SDS011;10126;50.876;4.470;2023-07-13T11:52:37;0.03;;;0.03;;
19927;SDS011;10126;50.876;4.470;2023-07-13T11:54:56;0.00;;;0.00;;
19927;SDS011;10126;50.876;4.470;2023-07-13T11:59:07;0.10;;;0.10;;
19927;SDS011;10126;50.876;4.470;2023-07-13T12:01:27;0.10;;;0.10;;
19927;SDS011;10126;50.876;4.470;2023-07-13T12:03:32;0.00;;;0.00;;
19927;SDS011;10126;50.876;4.470;2023-07-13T12:05:34;0.00;;;0.00;;
19927;SDS011;10126;50.876;4.470;2023-07-13T12:07:36;0.00;;;0.00;;
19927;SDS011;10126;50.876;4.470;2023-07-13T12:09:38;0.10;;;0.10;;
19927;SDS011;10126;50.876;4.470;2023-07-13T12:11:42;0.00;;;0.00;;
19927;SDS011;10126;50.876;4.470;2023-07-13T12:13:43;0.10;;;0.10;;
19927;SDS011;10126;50.876;4.470;2023-07-13T12:15:45;0.03;;;0.03;;
19927;SDS011;10126;50.876;4.470;2023-07-13T12:17:48;0.10;;;0.10;;
19927;SDS011;10126;50.876;4.470;2023-07-13T12:19:50;0.10;;;0.10;;
19927;SDS011;10126;50.876;4.470;2023-07-13T12:21:53;0.10;;;0.10;;
19927;SDS011;10126;50.876;4.470;2023-07-13T12:23:56;0.10;;;0.10;;
19927;SDS011;10126;50.876;4.470;2023-07-13T12:25:57;0.00;;;0.00;;
19927;SDS011;10126;50.876;4.470;2023-07-13T12:27:59;0.00;;;0.00;;
19927;SDS011;10126;50.876;4.470;2023-07-13T12:30:27;0.10;;;0.10;;
19927;SDS011;10126;50.876;4.470;2023-07-13T12:32:35;0.10;;;0.10;;
19927;SDS011;10126;50.876;4.470;2023-07-13T12:34:49;0.17;;;0.10;;
19927;SDS011;10126;50.876;4.470;2023-07-13T12:37:01;0.00;;;0.00;;
19927;SDS011;10126;50.876;4.470;2023-07-13T12:41:44;0.10;;;0.10;;